Time;durP1;ratioP1;P1;durP2;ratioP2;P2;SDS_P1;SDS_P2;PMS_P1;PMS_P2;Temp;Humidity;BMP_temperature;BMP_pressure;BME280_temperature;BME280_humidity;BME280_pressure;Samples;Min_cycle;Max_cycle;Signal;HPM_P1;HPM_P2
2021/12/18 00:01:47;;;;;;;24.10;9.90;;;5.20;92.10;;;;;;5035702;28;20044;-79
2021/12/18 00:04:15;;;;;;;20.75;9.80;;;5.20;92.20;;;;;;5053669;28;20021;-79
2021/12/18 00:06:43;;;;;;;20.70;9.23;;;5.30;92.10;;;;;;5053266;28;20086;-78
2021/12/18 00:09:10;;;;;;;18.80;8.73;;;5.30;92.00;;;;;;5053535;28;20029;-78
2021/12/18 00:11:37;;;;;;;19.70;8.35;;;5.30;92.20;;;;;;5051998;28;20047;-80
2021/12/18 00:14:06;;;;;;;17.75;9.13;;;5.30;92.10;;;;;;5035361;28;20451;-79
2021/12/18 00:16:33;;;;;;;14.70;8.50;;;5.30;92.10;;;;;;5053287;28;20454;-79
2021/12/18 00:18:59;;;;;;;13.65;8.10;;;5.30;91.90;;;;;;5052946;28;20025;-79
2021/12/18 00:21:27;;;;;;;24.40;9.45;;;5.30;92.00;;;;;;5051741;28;20035;-79
2021/12/18 00:23:55;;;;;;;18.73;8.35;;;5.30;91.90;;;;;;5051992;28;20082;-80
2021/12/18 00:26:22;;;;;;;21.27;8.85;;;5.30;91.80;;;;;;5052093;28;20421;-79
2021/12/18 00:28:49;;;;;;;16.75;7.70;;;5.30;92.00;;;;;;5052246;28;20032;-79
2021/12/18 00:31:15;;;;;;;15.38;7.65;;;5.30;91.60;;;;;;5035592;28;20040;-79
2021/12/18 00:33:42;;;;;;;16.70;8.73;;;5.30;91.70;;;;;;5053227;28;20033;-78
2021/12/18 00:36:09;;;;;;;15.45;8.40;;;5.40;91.70;;;;;;5053376;28;20107;-79
2021/12/18 00:38:38;;;;;;;17.38;9.35;;;5.40;91.60;;;;;;5051496;28;20021;-79
2021/12/18 00:43:36;;;;;;;16.00;8.13;;;5.40;91.70;;;;;;5053570;28;20025;-79
2021/12/18 00:46:04;;;;;;;19.05;9.57;;;5.40;91.80;;;;;;5051932;28;20381;-79
2021/12/18 00:48:32;;;;;;;17.33;8.70;;;5.40;92.00;;;;;;5052929;28;20075;-79
2021/12/18 00:51:00;;;;;;;18.58;8.13;;;5.50;91.60;;;;;;5053110;28;20108;-79
2021/12/18 00:53:28;;;;;;;22.95;9.77;;;5.50;91.50;;;;;;5053160;28;20493;-78
2021/12/18 00:55:56;;;;;;;18.58;9.05;;;5.50;91.50;;;;;;5052701;28;20049;-79
2021/12/18 00:58:24;;;;;;;20.33;9.27;;;5.50;91.40;;;;;;5053289;28;20485;-80
2021/12/18 01:00:53;;;;;;;22.05;9.05;;;5.50;91.40;;;;;;5053093;28;20033;-79
2021/12/18 01:03:21;;;;;;;20.10;9.18;;;5.50;91.30;;;;;;5053161;28;20169;-79
2021/12/18 01:05:49;;;;;;;24.20;9.60;;;5.50;91.40;;;;;;5035143;28;20025;-80
2021/12/18 01:08:15;;;;;;;20.50;8.60;;;5.50;91.40;;;;;;5051597;28;20032;-79
2021/12/18 01:13:31;;;;;;;16.92;9.82;;;5.50;91.30;;;;;;5052948;28;20029;-79
2021/12/18 01:16:06;;;;;;;21.65;10.23;;;5.50;91.30;;;;;;5051475;28;20463;-79
2021/12/18 01:24:03;;;;;;;19.20;10.40;;;5.50;91.30;;;;;;5054570;28;20114;-81
2021/12/18 01:26:29;;;;;;;17.63;8.93;;;5.40;91.40;;;;;;5054224;28;20021;-79
2021/12/18 01:28:55;;;;;;;15.70;9.18;;;5.50;91.40;;;;;;5052629;28;20359;-80
2021/12/18 01:31:23;;;;;;;20.95;9.00;;;5.50;91.30;;;;;;5052581;28;20032;-79
2021/12/18 01:33:50;;;;;;;22.40;9.98;;;5.50;91.20;;;;;;5056298;28;20025;-80
2021/12/18 01:36:17;;;;;;;17.83;8.88;;;5.50;91.10;;;;;;5056225;28;20108;-79
2021/12/18 01:38:44;;;;;;;21.88;9.50;;;5.50;91.20;;;;;;5054804;28;20032;-80
2021/12/18 01:41:14;;;;;;;15.60;9.00;;;5.50;91.30;;;;;;5054790;28;20086;-79
2021/12/18 01:46:44;;;;;;;23.42;9.32;;;5.50;91.20;;;;;;5055195;28;20052;-78
2021/12/18 01:54:25;;;;;;;16.40;9.25;;;5.50;91.20;;;;;;5076365;28;20035;-80
2021/12/18 01:56:53;;;;;;;15.77;7.93;;;5.50;91.40;;;;;;5057650;28;20137;-80
2021/12/18 01:59:46;;;;;;;18.35;9.27;;;5.50;91.20;;;;;;5060283;28;20017;-80
2021/12/18 02:02:14;;;;;;;18.27;8.70;;;5.50;91.10;;;;;;5054444;28;20018;-79
2021/12/18 02:04:40;;;;;;;20.77;8.75;;;5.50;91.10;;;;;;5054522;28;20075;-79
2021/12/18 02:07:07;;;;;;;20.83;8.63;;;5.50;91.10;;;;;;5054996;28;20025;-79
2021/12/18 02:12:10;;;;;;;17.98;9.07;;;5.60;91.10;;;;;;5055052;28;20051;-80
2021/12/18 02:23:05;;;;;;;25.20;9.85;;;5.50;91.00;;;;;;5055967;28;20061;-80
2021/12/18 02:25:34;;;;;;;21.25;10.45;;;5.50;90.90;;;;;;5054078;28;20034;-79
2021/12/18 02:28:01;;;;;;;18.65;10.05;;;5.50;91.10;;;;;;5054145;28;20394;-79
2021/12/18 02:30:30;;;;;;;29.13;12.02;;;5.50;91.00;;;;;;5053987;28;20043;-80
2021/12/18 02:32:57;;;;;;;23.17;12.15;;;5.50;91.00;;;;;;5038391;28;20499;-80
2021/12/18 02:35:30;;;;;;;26.10;11.98;;;5.50;91.10;;;;;;5053955;28;20057;-80
2021/12/18 02:38:13;;;;;;;23.55;10.75;;;5.50;91.20;;;;;;5055260;28;20017;-80
2021/12/18 02:43:32;;;;;;;21.67;11.80;;;5.50;91.20;;;;;;5054948;28;20508;-81
2021/12/18 02:45:59;;;;;;;25.00;11.45;;;5.40;91.20;;;;;;5038058;28;20035;-80
2021/12/18 02:48:29;;;;;;;22.15;10.25;;;5.40;91.20;;;;;;5037513;28;20026;-80
2021/12/18 02:50:59;;;;;;;22.60;10.60;;;5.40;91.20;;;;;;5053732;28;20025;-80
2021/12/18 02:53:27;;;;;;;20.98;9.95;;;5.50;91.30;;;;;;5053578;28;20029;-80
2021/12/18 02:56:03;;;;;;;22.73;9.18;;;5.40;91.40;;;;;;5036563;28;20126;-80
2021/12/18 02:58:31;;;;;;;18.23;9.73;;;5.40;91.50;;;;;;5054795;28;20021;-80
2021/12/18 03:01:14;;;;;;;20.52;8.77;;;5.40;91.50;;;;;;5053416;28;20045;-80
2021/12/18 03:03:41;;;;;;;19.75;8.52;;;5.40;91.50;;;;;;5054482;28;20025;-80
2021/12/18 03:27:44;;;;;;;22.50;8.45;;;5.40;91.60;;;;;;5054501;28;20025;-79
2021/12/18 03:30:14;;;;;;;20.90;9.00;;;5.40;91.50;;;;;;5052899;28;20462;-79
2021/12/18 03:32:42;;;;;;;17.17;8.10;;;5.40;91.50;;;;;;5052978;28;20033;-80
2021/12/18 03:35:08;;;;;;;17.02;8.27;;;5.40;91.40;;;;;;5053966;28;20027;-80
2021/12/18 03:37:36;;;;;;;19.92;9.45;;;5.40;91.70;;;;;;5052604;28;20043;-80
2021/12/18 03:40:08;;;;;;;15.93;8.20;;;5.40;91.30;;;;;;5052908;28;20086;-78
2021/12/18 03:42:36;;;;;;;21.67;9.73;;;5.40;91.30;;;;;;5054140;28;20017;-80
2021/12/18 03:45:04;;;;;;;23.40;8.27;;;5.40;91.40;;;;;;5052586;28;20424;-80
2021/12/18 03:47:32;;;;;;;16.33;7.55;;;5.40;91.30;;;;;;5052480;28;20021;-80
2021/12/18 03:50:00;;;;;;;19.85;7.38;;;5.40;91.20;;;;;;5052327;28;20470;-79
2021/12/18 03:52:26;;;;;;;19.13;8.50;;;5.40;91.20;;;;;;5052413;28;20025;-80
2021/12/18 03:54:53;;;;;;;20.58;9.05;;;5.40;91.20;;;;;;5052935;28;20027;-80
2021/12/18 03:57:21;;;;;;;14.80;9.05;;;5.40;91.20;;;;;;5053630;28;20109;-80
2021/12/18 03:59:46;;;;;;;17.23;8.55;;;5.40;91.20;;;;;;5052265;28;20040;-80
2021/12/18 04:02:13;;;;;;;19.27;8.68;;;5.40;91.10;;;;;;5052075;28;20466;-80
2021/12/18 04:04:39;;;;;;;21.58;8.98;;;5.40;91.10;;;;;;5052270;28;20029;-80
2021/12/18 04:07:08;;;;;;;17.90;8.80;;;5.40;91.10;;;;;;5052537;28;20036;-79
2021/12/18 04:09:35;;;;;;;19.08;9.40;;;5.40;91.10;;;;;;5053782;28;20485;-79
2021/12/18 04:12:02;;;;;;;18.30;8.73;;;5.40;91.40;;;;;;5035756;28;20091;-79
2021/12/18 04:14:36;;;;;;;20.73;8.77;;;5.40;91.00;;;;;;5053416;28;20017;-79
2021/12/18 04:17:16;;;;;;;17.35;9.15;;;5.40;91.20;;;;;;5053860;28;20079;-79
2021/12/18 04:19:43;;;;;;;19.92;9.07;;;5.40;91.10;;;;;;5052497;28;20075;-78
2021/12/18 04:22:11;;;;;;;19.88;9.52;;;5.40;91.10;;;;;;5053548;28;20522;-78
2021/12/18 04:24:39;;;;;;;17.80;8.85;;;5.40;91.10;;;;;;5035611;28;20120;-79
2021/12/18 04:27:06;;;;;;;16.95;8.63;;;5.40;91.10;;;;;;5052092;28;20036;-79
2021/12/18 04:29:34;;;;;;;18.25;8.90;;;5.40;91.10;;;;;;5053427;28;20021;-79
2021/12/18 04:32:02;;;;;;;19.25;8.93;;;5.40;90.90;;;;;;5052257;28;20028;-80
2021/12/18 04:34:30;;;;;;;17.45;8.93;;;5.40;90.90;;;;;;5051960;28;20017;-80
2021/12/18 04:36:58;;;;;;;19.60;8.35;;;5.40;90.90;;;;;;5053174;28;20029;-79
2021/12/18 04:39:27;;;;;;;18.60;9.63;;;5.40;90.90;;;;;;5053362;28;20017;-80
2021/12/18 04:41:57;;;;;;;19.55;8.25;;;5.40;90.80;;;;;;5053042;28;20116;-79
2021/12/18 04:44:25;;;;;;;19.10;8.70;;;5.40;90.90;;;;;;5051753;28;20112;-79
2021/12/18 04:46:59;;;;;;;20.38;8.20;;;5.40;91.00;;;;;;5051996;28;20017;-81
2021/12/18 04:49:26;;;;;;;11.82;6.80;;;5.40;90.90;;;;;;5051911;28;20159;-80
2021/12/18 04:51:52;;;;;;;17.30;7.38;;;5.40;91.00;;;;;;5051780;28;20056;-79
2021/12/18 04:54:20;;;;;;;19.85;7.38;;;5.40;91.00;;;;;;5051692;28;20033;-80
2021/12/18 04:56:47;;;;;;;18.77;7.35;;;5.40;91.10;;;;;;5051383;28;20091;-79
2021/12/18 04:59:14;;;;;;;22.15;7.30;;;5.40;91.20;;;;;;5052851;28;20040;-79
2021/12/18 05:01:41;;;;;;;13.75;7.30;;;5.40;91.10;;;;;;5051600;28;20021;-79
2021/12/18 05:04:11;;;;;;;17.02;7.75;;;5.40;91.20;;;;;;5051591;28;20114;-79
2021/12/18 05:06:40;;;;;;;14.35;6.88;;;5.40;91.20;;;;;;5037892;28;20041;-79
2021/12/18 05:09:08;;;;;;;17.42;6.93;;;5.40;90.90;;;;;;5039085;28;20406;-78
2021/12/18 05:11:34;;;;;;;14.73;7.30;;;5.40;91.20;;;;;;5038908;28;20049;-79
2021/12/18 05:14:00;;;;;;;14.10;6.68;;;5.40;91.10;;;;;;5056854;28;20075;-79
2021/12/18 05:16:28;;;;;;;20.73;8.20;;;5.40;91.30;;;;;;5055255;28;20037;-80
2021/12/18 05:18:56;;;;;;;16.27;7.57;;;5.40;91.00;;;;;;5056445;28;20021;-80
2021/12/18 05:21:24;;;;;;;23.38;7.47;;;5.40;91.10;;;;;;5055153;28;20021;-80
2021/12/18 05:23:52;;;;;;;15.55;7.43;;;5.40;91.10;;;;;;5056566;28;20092;-80
2021/12/18 05:26:20;;;;;;;16.33;8.43;;;5.40;91.10;;;;;;5056521;28;20040;-80
2021/12/18 05:28:46;;;;;;;16.58;7.68;;;5.40;91.20;;;;;;5056411;28;20474;-80
2021/12/18 05:31:16;;;;;;;19.27;8.18;;;5.40;91.20;;;;;;5038464;28;20052;-80
2021/12/18 05:33:43;;;;;;;15.27;6.90;;;5.40;91.30;;;;;;5054941;28;20025;-80
2021/12/18 05:39:06;;;;;;;17.58;8.20;;;5.40;91.10;;;;;;5056168;28;20036;-80
2021/12/18 05:41:40;;;;;;;16.67;7.47;;;5.40;91.20;;;;;;5054826;28;20520;-80
2021/12/18 05:44:07;;;;;;;15.43;7.57;;;5.40;91.20;;;;;;5055860;28;20021;-80
2021/12/18 05:46:35;;;;;;;25.77;8.07;;;5.40;91.30;;;;;;5056140;28;20021;-79
2021/12/18 05:49:02;;;;;;;16.00;8.18;;;5.40;91.40;;;;;;5054690;28;20604;-80
2021/12/18 05:51:31;;;;;;;17.30;8.00;;;5.40;91.40;;;;;;5054750;28;20143;-80
2021/12/18 05:53:59;;;;;;;17.48;7.40;;;5.40;91.40;;;;;;5054393;28;20029;-80
2021/12/18 05:56:27;;;;;;;17.90;7.95;;;5.40;91.40;;;;;;5053967;28;20061;-80
2021/12/18 05:58:53;;;;;;;15.68;7.05;;;5.40;91.10;;;;;;5054119;28;20013;-81
2021/12/18 06:01:19;;;;;;;25.73;7.90;;;5.40;91.30;;;;;;5037666;28;20056;-80
2021/12/18 06:03:46;;;;;;;14.63;6.60;;;5.40;91.30;;;;;;5055482;28;20088;-80
2021/12/18 06:06:14;;;;;;;15.93;7.78;;;5.40;91.20;;;;;;5054549;28;20029;-80
2021/12/18 06:08:43;;;;;;;19.80;9.32;;;5.40;91.20;;;;;;5037592;28;20091;-79
2021/12/18 06:11:15;;;;;;;15.73;8.82;;;5.40;91.20;;;;;;5054018;28;20029;-80
2021/12/18 06:13:44;;;;;;;18.05;7.38;;;5.40;91.20;;;;;;5055246;28;20092;-80
2021/12/18 06:16:20;;;;;;;15.90;7.10;;;5.40;91.00;;;;;;5055427;28;20032;-80
2021/12/18 06:18:49;;;;;;;14.55;6.18;;;5.40;90.80;;;;;;5053146;28;20458;-80
2021/12/18 06:21:17;;;;;;;16.75;7.70;;;5.40;91.20;;;;;;5055059;28;20052;-79
2021/12/18 06:23:48;;;;;;;15.68;6.97;;;5.40;90.80;;;;;;5053765;28;20061;-80
2021/12/18 06:26:16;;;;;;;17.70;7.53;;;5.40;90.90;;;;;;5054022;28;20489;-80
2021/12/18 06:28:42;;;;;;;16.38;7.63;;;5.40;90.80;;;;;;5037347;28;20151;-80
2021/12/18 06:31:08;;;;;;;16.05;6.53;;;5.40;90.90;;;;;;5053852;28;20488;-80
2021/12/18 06:33:34;;;;;;;13.73;7.18;;;5.40;90.80;;;;;;5053052;28;20082;-80
2021/12/18 06:36:00;;;;;;;19.95;6.57;;;5.40;90.80;;;;;;5053495;28;20040;-80
2021/12/18 06:38:28;;;;;;;11.70;5.55;;;5.40;90.70;;;;;;5053352;28;20470;-80
2021/12/18 06:40:56;;;;;;;14.55;6.95;;;5.40;91.00;;;;;;5054631;28;20025;-79
2021/12/18 06:43:26;;;;;;;13.85;6.97;;;5.40;90.60;;;;;;5053287;28;20052;-79
2021/12/18 06:45:54;;;;;;;22.83;7.47;;;5.40;90.60;;;;;;5053774;28;20025;-80
2021/12/18 06:48:22;;;;;;;13.98;6.57;;;5.40;90.70;;;;;;5053384;28;20033;-79
2021/12/18 06:50:50;;;;;;;20.27;6.90;;;5.40;90.60;;;;;;5054777;28;20155;-75
2021/12/18 06:53:18;;;;;;;16.80;7.63;;;5.40;90.70;;;;;;5053310;28;20118;-75
2021/12/18 06:55:45;;;;;;;16.98;6.43;;;5.40;90.70;;;;;;5052857;28;20410;-75
2021/12/18 06:58:11;;;;;;;14.43;6.00;;;5.40;90.60;;;;;;5054621;28;20037;-75
2021/12/18 07:00:37;;;;;;;12.40;6.15;;;5.40;90.50;;;;;;5054457;28;20032;-75
2021/12/18 07:03:03;;;;;;;10.52;6.05;;;5.40;90.30;;;;;;5053107;28;20068;-75
2021/12/18 07:05:31;;;;;;;11.63;6.75;;;5.40;90.30;;;;;;5053245;28;20549;-76
2021/12/18 07:07:58;;;;;;;21.08;7.57;;;5.40;90.20;;;;;;5052905;28;20493;-76
2021/12/18 07:10:25;;;;;;;13.18;7.30;;;5.40;90.50;;;;;;5052922;28;20035;-74
2021/12/18 07:12:52;;;;;;;14.50;7.43;;;5.40;90.20;;;;;;5052732;28;20474;-76
2021/12/18 07:15:18;;;;;;;14.73;7.53;;;5.40;90.10;;;;;;5054192;28;20075;-76
2021/12/18 07:17:50;;;;;;;15.32;7.35;;;5.40;90.00;;;;;;5054748;28;20035;-74
2021/12/18 07:20:17;;;;;;;17.33;8.38;;;5.40;89.80;;;;;;5054915;28;20082;-75
2021/12/18 07:22:42;;;;;;;19.52;7.85;;;5.40;90.00;;;;;;5053893;28;20064;-77
2021/12/18 07:25:13;;;;;;;30.15;7.38;;;5.40;90.00;;;;;;5054575;28;20029;-76
2021/12/18 07:27:40;;;;;;;22.58;9.07;;;5.40;90.00;;;;;;5053149;28;20048;-76
2021/12/18 07:30:08;;;;;;;19.20;9.30;;;5.40;90.00;;;;;;5054233;28;20068;-76
2021/12/18 07:32:36;;;;;;;20.83;9.10;;;5.40;89.80;;;;;;5052230;28;20473;-76
2021/12/18 07:35:02;;;;;;;19.60;8.70;;;5.40;89.90;;;;;;5052940;28;20017;-74
2021/12/18 07:37:29;;;;;;;21.92;10.20;;;5.40;89.60;;;;;;5052318;28;20032;-75
2021/12/18 07:39:55;;;;;;;17.30;8.68;;;5.50;89.60;;;;;;5053711;28;20378;-75
2021/12/18 07:42:22;;;;;;;24.73;9.35;;;5.50;89.90;;;;;;5051997;28;20024;-74
2021/12/18 07:44:49;;;;;;;20.13;9.43;;;5.50;89.80;;;;;;5052250;28;20017;-76
2021/12/18 07:47:17;;;;;;;18.70;9.57;;;5.50;89.70;;;;;;5052292;28;20021;-75
2021/12/18 07:49:43;;;;;;;17.55;8.77;;;5.50;89.60;;;;;;5052314;28;20025;-79
2021/12/18 07:52:09;;;;;;;24.83;10.48;;;5.60;89.50;;;;;;5052495;28;20385;-79
2021/12/18 07:54:37;;;;;;;16.55;8.77;;;5.60;90.00;;;;;;5052464;28;20524;-79
2021/12/18 07:57:05;;;;;;;16.40;9.25;;;5.60;90.00;;;;;;5073073;28;20639;-77
2021/12/18 07:59:43;;;;;;;23.00;10.25;;;5.60;89.40;;;;;;5072548;28;20055;-79
2021/12/18 08:02:23;;;;;;;26.73;10.68;;;5.70;89.00;;;;;;5091704;28;20072;-76
2021/12/18 08:04:53;;;;;;;18.20;9.75;;;5.80;89.20;;;;;;5086059;28;20107;-76
2021/12/18 08:07:21;;;;;;;20.10;10.00;;;5.80;89.00;;;;;;5073578;28;20020;-77
2021/12/18 08:09:49;;;;;;;15.65;9.13;;;5.90;88.50;;;;;;5072764;28;20025;-81
2021/12/18 08:12:16;;;;;;;21.05;8.55;;;5.90;88.10;;;;;;5075218;28;20024;-75
2021/12/18 08:14:41;;;;;;;23.45;9.75;;;6.00;87.80;;;;;;5092764;28;20028;-82
2021/12/18 08:17:08;;;;;;;21.45;10.43;;;6.00;87.10;;;;;;5094541;28;20050;-79
2021/12/18 08:19:41;;;;;;;19.33;8.90;;;6.00;87.70;;;;;;5079609;28;20028;-82
2021/12/18 08:22:07;;;;;;;19.50;9.57;;;6.10;86.80;;;;;;5072864;28;20013;-77
2021/12/18 08:24:37;;;;;;;16.73;8.70;;;6.00;86.90;;;;;;5088211;28;20397;-81
2021/12/18 08:27:05;;;;;;;15.05;8.55;;;6.00;86.80;;;;;;5072218;28;20342;-74
2021/12/18 08:29:32;;;;;;;18.65;9.02;;;6.10;87.00;;;;;;5072313;28;20393;-76
2021/12/18 08:32:02;;;;;;;13.82;8.18;;;6.10;86.80;;;;;;5072100;28;20021;-77
2021/12/18 08:34:30;;;;;;;18.15;9.43;;;6.20;86.60;;;;;;5036151;28;20029;-77
2021/12/18 08:37:03;;;;;;;19.55;8.73;;;6.20;86.50;;;;;;5074222;28;20083;-78
2021/12/18 08:39:29;;;;;;;20.08;8.65;;;6.20;86.40;;;;;;5084583;28;20043;-85
2021/12/18 08:41:59;;;;;;;15.70;9.27;;;6.30;86.20;;;;;;5097108;28;20385;-80
2021/12/18 08:44:29;;;;;;;16.92;9.02;;;6.30;86.10;;;;;;5096540;28;20054;-78
2021/12/18 08:46:55;;;;;;;20.77;10.23;;;6.40;85.70;;;;;;5098153;28;20028;-80
2021/12/18 08:49:22;;;;;;;15.38;8.98;;;6.40;85.60;;;;;;5088808;28;20376;-82
2021/12/18 08:51:49;;;;;;;28.05;10.73;;;6.50;85.30;;;;;;5077463;28;20036;-80
2021/12/18 08:54:16;;;;;;;14.45;8.63;;;6.60;85.00;;;;;;5077948;28;20033;-82
2021/12/18 08:56:43;;;;;;;17.83;8.63;;;6.60;84.90;;;;;;5095592;28;20089;-76
2021/12/18 08:59:09;;;;;;;21.23;9.93;;;6.70;84.60;;;;;;5091683;28;21462;-78
2021/12/18 09:01:35;;;;;;;20.88;9.63;;;6.80;84.60;;;;;;5066359;28;20041;-78
2021/12/18 09:04:04;;;;;;;18.50;9.23;;;6.90;84.40;;;;;;5088170;28;20016;-78
2021/12/18 09:06:32;;;;;;;20.13;9.25;;;6.90;84.10;;;;;;5079092;28;20067;-82
2021/12/18 09:08:58;;;;;;;29.63;9.43;;;7.00;84.00;;;;;;5067640;28;20060;-83
2021/12/18 09:11:24;;;;;;;17.30;8.50;;;7.10;83.40;;;;;;5063898;28;20085;-82
2021/12/18 09:13:50;;;;;;;18.70;9.73;;;7.10;82.90;;;;;;5071190;28;20052;-82
2021/12/18 09:16:17;;;;;;;18.17;8.82;;;7.10;83.00;;;;;;5085834;28;20032;-76
2021/12/18 09:18:43;;;;;;;17.55;10.88;;;7.10;82.90;;;;;;5078134;28;20016;-79
2021/12/18 09:21:09;;;;;;;15.40;8.27;;;7.10;83.00;;;;;;5085671;28;20035;-80
2021/12/18 09:23:36;;;;;;;11.70;7.97;;;7.10;83.40;;;;;;5096380;28;20107;-82
2021/12/18 09:26:11;;;;;;;14.27;8.25;;;7.20;83.30;;;;;;5065387;28;20016;-82
2021/12/18 09:28:38;;;;;;;23.73;8.07;;;7.30;83.10;;;;;;5087633;28;20086;-76
2021/12/18 09:31:05;;;;;;;17.95;7.80;;;7.30;82.40;;;;;;5087722;28;20116;-80
2021/12/18 09:33:32;;;;;;;18.80;8.30;;;7.40;82.10;;;;;;5074519;28;20517;-79
2021/12/18 09:35:58;;;;;;;19.60;7.30;;;7.30;81.90;;;;;;5071247;28;20108;-73
2021/12/18 09:38:32;;;;;;;18.25;7.35;;;7.30;82.50;;;;;;5072137;28;20107;-74
2021/12/18 09:41:01;;;;;;;16.98;9.48;;;7.40;82.10;;;;;;5070164;28;20012;-77
2021/12/18 09:43:29;;;;;;;18.75;8.57;;;7.40;82.20;;;;;;5074250;28;20024;-81
2021/12/18 09:46:08;;;;;;;19.45;7.60;;;7.40;82.10;;;;;;5097282;28;20095;-79
2021/12/18 09:48:35;;;;;;;22.02;8.13;;;7.50;82.60;;;;;;5060791;28;20037;-78
2021/12/18 09:51:09;;;;;;;16.60;7.78;;;7.50;82.60;;;;;;5056779;28;20036;-76
2021/12/18 09:53:40;;;;;;;16.50;7.50;;;7.60;82.50;;;;;;5065428;28;20033;-78
2021/12/18 09:56:07;;;;;;;19.67;8.35;;;7.60;81.90;;;;;;5067632;28;20045;-78
2021/12/18 09:58:34;;;;;;;16.45;7.40;;;7.60;82.10;;;;;;5065136;28;20036;-78
2021/12/18 10:01:02;;;;;;;14.75;7.47;;;7.80;81.80;;;;;;5081310;28;20107;-76
2021/12/18 10:03:51;;;;;;;24.10;8.48;;;7.80;81.50;;;;;;5083976;27;20036;-76
2021/12/18 10:06:47;;;;;;;14.13;7.65;;;8.00;80.90;;;;;;5055418;28;20021;-79
2021/12/18 10:09:21;;;;;;;18.77;8.10;;;8.10;80.70;;;;;;5085866;28;20063;-77
2021/12/18 10:11:54;;;;;;;19.25;8.38;;;8.10;80.00;;;;;;5089248;28;20024;-76
2021/12/18 10:14:32;;;;;;;17.98;8.20;;;8.20;80.00;;;;;;5059979;28;20025;-83
2021/12/18 10:16:58;;;;;;;21.15;8.38;;;8.20;79.70;;;;;;5064501;28;20024;-84
2021/12/18 10:19:28;;;;;;;19.98;8.32;;;8.20;79.60;;;;;;5054197;28;20504;-83
2021/12/18 10:22:04;;;;;;;21.05;9.55;;;8.20;79.40;;;;;;5064204;28;20482;-80
2021/12/18 10:24:30;;;;;;;20.80;8.55;;;8.20;79.40;;;;;;5067200;28;20034;-77
2021/12/18 10:26:57;;;;;;;21.08;9.18;;;8.20;79.70;;;;;;5062598;28;20474;-76
2021/12/18 10:29:34;;;;;;;21.20;10.32;;;8.10;80.20;;;;;;5065168;28;20020;-75
2021/12/18 10:32:11;;;;;;;17.33;8.77;;;8.20;80.00;;;;;;5074536;28;20390;-74
2021/12/18 10:34:39;;;;;;;17.83;9.88;;;8.20;79.80;;;;;;5067376;28;20397;-76
2021/12/18 10:37:23;;;;;;;15.00;7.65;;;8.20;79.90;;;;;;5051357;28;20021;-77
2021/12/18 10:40:07;;;;;;;22.30;8.88;;;8.20;79.80;;;;;;5058014;28;20052;-76
2021/12/18 10:42:46;;;;;;;20.02;10.00;;;8.10;80.10;;;;;;5056092;28;20017;-81
2021/12/18 10:45:25;;;;;;;20.48;8.65;;;8.10;80.40;;;;;;5055008;28;20021;-75
2021/12/18 10:48:03;;;;;;;17.45;8.85;;;8.10;80.70;;;;;;5054789;28;20079;-76
2021/12/18 10:50:49;;;;;;;34.88;11.60;;;8.20;80.70;;;;;;5067650;28;20029;-76
2021/12/18 10:53:21;;;;;;;20.92;9.85;;;8.20;80.40;;;;;;5064758;28;20104;-75
2021/12/18 10:56:00;;;;;;;15.70;9.02;;;8.20;79.90;;;;;;5064461;28;20512;-75
2021/12/18 10:58:34;;;;;;;22.80;10.05;;;8.20;80.30;;;;;;5061501;28;20021;-75
2021/12/18 11:01:14;;;;;;;21.67;11.52;;;8.10;80.60;;;;;;5056828;28;20029;-74
2021/12/18 11:03:46;;;;;;;21.55;8.88;;;8.20;80.50;;;;;;5054215;28;20481;-79
2021/12/18 11:06:25;;;;;;;16.77;9.00;;;8.20;80.30;;;;;;5054436;28;20017;-75
2021/12/18 11:08:58;;;;;;;17.52;9.55;;;8.20;80.50;;;;;;5054220;28;20374;-76
2021/12/18 11:14:20;;;;;;;18.52;8.82;;;8.10;79.80;;;;;;5053892;28;20029;-76
2021/12/18 11:16:49;;;;;;;22.05;9.00;;;8.20;80.20;;;;;;5054100;28;20095;-75
2021/12/18 11:19:17;;;;;;;26.02;10.25;;;8.10;80.20;;;;;;5052560;28;20028;-74
2021/12/18 11:21:57;;;;;;;16.42;8.27;;;8.10;80.70;;;;;;5055501;28;20569;-75
2021/12/18 11:24:33;;;;;;;19.55;8.68;;;8.10;80.40;;;;;;5052599;28;20021;-77
2021/12/18 11:27:10;;;;;;;15.52;7.90;;;8.00;80.60;;;;;;5053249;28;20029;-76
2021/12/18 11:30:06;;;;;;;19.75;8.93;;;8.10;81.00;;;;;;5053983;28;20040;-78
2021/12/18 11:32:39;;;;;;;22.02;9.55;;;8.10;81.20;;;;;;5053782;28;20033;-76
2021/12/18 11:35:14;;;;;;;16.48;9.57;;;8.20;81.00;;;;;;5036495;28;20083;-76
2021/12/18 11:37:53;;;;;;;16.92;9.30;;;8.20;80.70;;;;;;5053905;28;20033;-76
2021/12/18 11:40:36;;;;;;;14.15;8.77;;;8.10;80.80;;;;;;5052014;28;20037;-77
2021/12/18 11:43:34;;;;;;;20.13;9.63;;;8.10;80.80;;;;;;5054017;28;20473;-77
2021/12/18 11:46:00;;;;;;;22.30;9.73;;;8.10;80.90;;;;;;5051799;28;20029;-75
2021/12/18 11:48:26;;;;;;;19.00;9.07;;;8.10;81.10;;;;;;5053697;28;20024;-73
2021/12/18 11:50:54;;;;;;;14.93;8.63;;;8.10;81.00;;;;;;5053637;28;20021;-75
2021/12/18 11:53:41;;;;;;;15.77;9.50;;;8.10;80.80;;;;;;5052202;28;20053;-77
2021/12/18 11:56:08;;;;;;;15.50;8.85;;;8.20;81.70;;;;;;5053260;28;20053;-76
2021/12/18 11:58:54;;;;;;;18.30;9.70;;;8.10;81.10;;;;;;5035750;28;20530;-76
2021/12/18 12:01:25;;;;;;;12.57;8.23;;;8.20;81.30;;;;;;5063128;28;20469;-75
2021/12/18 12:03:56;;;;;;;15.23;8.93;;;8.10;81.30;;;;;;5056162;28;20377;-74
2021/12/18 12:06:49;;;;;;;16.48;9.18;;;8.10;81.50;;;;;;5066061;28;20459;-75
2021/12/18 12:09:37;;;;;;;12.25;8.15;;;8.10;81.50;;;;;;5052620;28;20367;-74
2021/12/18 12:12:08;;;;;;;16.95;8.65;;;8.10;82.00;;;;;;5052678;28;20048;-75
2021/12/18 12:14:39;;;;;;;12.70;8.10;;;8.10;82.20;;;;;;5053302;28;20055;-73
2021/12/18 12:17:08;;;;;;;13.57;7.55;;;8.10;82.00;;;;;;5052958;28;20462;-73
2021/12/18 12:19:33;;;;;;;16.05;7.85;;;8.00;82.00;;;;;;5052112;28;20047;-72
2021/12/18 12:22:07;;;;;;;12.90;7.32;;;8.00;82.00;;;;;;5053362;28;20021;-73
2021/12/18 12:24:54;;;;;;;12.98;7.28;;;8.00;82.30;;;;;;5062015;28;20445;-73
2021/12/18 12:27:30;;;;;;;10.20;7.15;;;7.90;82.70;;;;;;5072521;28;20107;-73
2021/12/18 12:29:59;;;;;;;14.45;8.10;;;7.90;82.60;;;;;;5071426;28;20033;-75
2021/12/18 12:32:27;;;;;;;13.38;7.53;;;7.90;82.70;;;;;;5065006;28;20044;-73
2021/12/18 12:35:17;;;;;;;11.40;7.65;;;7.90;83.20;;;;;;5052597;28;20112;-74
2021/12/18 12:37:46;;;;;;;12.93;8.63;;;7.80;83.40;;;;;;5072859;28;20028;-78
2021/12/18 12:40:15;;;;;;;19.13;9.07;;;7.80;83.90;;;;;;5072225;28;20017;-74
2021/12/18 12:43:05;;;;;;;13.52;8.10;;;7.70;84.50;;;;;;5073469;28;20016;-74
2021/12/18 12:45:38;;;;;;;15.15;8.85;;;7.70;84.50;;;;;;5059357;28;20047;-72
2021/12/18 12:48:07;;;;;;;17.77;8.55;;;7.70;84.80;;;;;;5074695;28;20039;-72
2021/12/18 12:50:33;;;;;;;11.65;8.55;;;7.70;85.00;;;;;;5078353;27;20033;-74
2021/12/18 12:53:08;;;;;;;11.80;8.20;;;7.70;85.00;;;;;;5079177;28;20037;-73
2021/12/18 12:55:47;;;;;;;16.38;8.57;;;7.70;84.80;;;;;;5080833;28;20049;-73
2021/12/18 12:58:21;;;;;;;11.40;8.20;;;7.70;85.00;;;;;;5062394;28;20028;-73
2021/12/18 13:01:08;;;;;;;11.43;8.45;;;7.60;85.30;;;;;;5092614;27;20048;-73
2021/12/18 13:03:48;;;;;;;12.23;8.30;;;7.70;85.70;;;;;;5070672;28;20028;-74
2021/12/18 13:06:21;;;;;;;12.80;8.98;;;7.70;85.70;;;;;;5085208;28;20388;-74
2021/12/18 13:09:07;;;;;;;16.92;9.43;;;7.70;85.20;;;;;;5084838;28;20024;-74
2021/12/18 13:11:35;;;;;;;19.17;9.20;;;7.70;85.20;;;;;;5083342;28;20039;-73
2021/12/18 13:14:03;;;;;;;15.00;8.57;;;7.70;85.40;;;;;;5081333;28;20024;-74
2021/12/18 13:16:30;;;;;;;15.20;7.75;;;7.80;85.20;;;;;;5092533;27;20036;-74
2021/12/18 13:18:58;;;;;;;16.48;9.93;;;7.80;85.20;;;;;;5075757;28;20025;-74
2021/12/18 13:21:36;;;;;;;16.77;10.30;;;7.80;85.30;;;;;;5052513;28;20048;-73
2021/12/18 13:24:23;;;;;;;14.77;9.13;;;7.80;85.20;;;;;;5052545;28;20041;-73
2021/12/18 13:26:55;;;;;;;16.48;9.32;;;7.80;85.30;;;;;;5051881;28;20027;-76
2021/12/18 13:29:32;;;;;;;13.15;7.88;;;7.70;85.50;;;;;;5054872;28;20037;-75
2021/12/18 13:31:59;;;;;;;18.65;9.07;;;7.80;85.60;;;;;;5055045;28;20029;-75
2021/12/18 13:34:36;;;;;;;16.38;9.18;;;7.80;85.40;;;;;;5055050;28;20033;-74
2021/12/18 13:37:11;;;;;;;11.82;8.07;;;7.80;85.40;;;;;;5054837;28;20523;-74
2021/12/18 13:39:47;;;;;;;15.43;9.02;;;7.80;85.40;;;;;;5071547;28;20112;-74
2021/12/18 13:42:23;;;;;;;15.35;9.60;;;7.80;85.50;;;;;;5071079;28;20083;-74
2021/12/18 13:45:01;;;;;;;13.23;9.40;;;7.80;85.90;;;;;;5054827;28;20029;-76
2021/12/18 13:47:32;;;;;;;13.52;8.10;;;7.80;86.10;;;;;;5056254;28;20067;-73
2021/12/18 13:50:22;;;;;;;12.55;7.90;;;7.80;86.00;;;;;;5056184;28;20056;-73
2021/12/18 13:52:58;;;;;;;13.68;8.30;;;7.80;85.90;;;;;;5054699;28;20120;-73
2021/12/18 13:55:44;;;;;;;14.85;9.20;;;7.80;86.40;;;;;;5055876;28;20052;-76
2021/12/18 13:58:34;;;;;;;13.73;8.60;;;7.90;86.10;;;;;;5055284;28;20138;-75
2021/12/18 14:01:21;;;;;;;13.48;7.88;;;7.90;86.10;;;;;;5049590;28;20040;-78
2021/12/18 14:03:50;;;;;;;13.40;7.82;;;7.80;86.40;;;;;;5057120;28;20017;-79